sensor_id;sensor_type;location;lat;lon;timestamp;pressure;altitude;pressure_sealevel;temperature;humidity
51849;BME280;38952;51.090;-1.832;2023-03-23T00:00:26;98419.50;;;8.62;100.00
51849;BME280;38952;51.090;-1.832;2023-03-23T00:02:53;98393.22;;;8.38;100.00
51849;BME280;38952;51.090;-1.832;2023-03-23T00:05:25;98404.41;;;8.37;100.00
51849;BME280;38952;51.090;-1.832;2023-03-23T00:07:51;98414.38;;;8.28;100.00
51849;BME280;38952;51.090;-1.832;2023-03-23T00:10:22;98440.19;;;8.30;100.00
51849;BME280;38952;51.090;-1.832;2023-03-23T00:12:52;98412.34;;;8.19;100.00
51849;BME280;38952;51.090;-1.832;2023-03-23T00:15:17;98424.16;;;8.15;100.00
51849;BME280;38952;51.090;-1.832;2023-03-23T00:18:00;98448.00;;;8.04;100.00
51849;BME280;38952;51.090;-1.832;2023-03-23T00:20:41;98455.66;;;8.02;100.00
51849;BME280;38952;51.090;-1.832;2023-03-23T00:23:12;98469.13;;;7.93;100.00
51849;BME280;38952;51.090;-1.832;2023-03-23T00:25:47;98442.22;;;7.92;100.00
51849;BME280;38952;51.090;-1.832;2023-03-23T00:28:13;98453.16;;;7.86;100.00
51849;BME280;38952;51.090;-1.832;2023-03-23T00:30:39;98445.47;;;7.75;100.00
51849;BME280;38952;51.090;-1.832;2023-03-23T00:33:08;98464.66;;;7.83;100.00
51849;BME280;38952;51.090;-1.832;2023-03-23T00:35:38;98466.44;;;7.74;100.00
51849;BME280;38952;51.090;-1.832;2023-03-23T00:38:04;98444.81;;;7.64;100.00
51849;BME280;38952;51.090;-1.832;2023-03-23T00:40:29;98441.13;;;7.55;100.00
51849;BME280;38952;51.090;-1.832;2023-03-23T00:42:55;98438.50;;;7.68;100.00
51849;BME280;38952;51.090;-1.832;2023-03-23T00:45:45;98470.84;;;7.70;100.00
51849;BME280;38952;51.090;-1.832;2023-03-23T00:48:37;98466.00;;;7.67;100.00
51849;BME280;38952;51.090;-1.832;2023-03-23T00:51:18;98460.69;;;7.57;100.00
51849;BME280;38952;51.090;-1.832;2023-03-23T00:53:44;98456.66;;;7.54;100.00
51849;BME280;38952;51.090;-1.832;2023-03-23T00:56:13;98512.69;;;7.55;100.00
51849;BME280;38952;51.090;-1.832;2023-03-23T00:58:39;98436.88;;;7.48;100.00
51849;BME280;38952;51.090;-1.832;2023-03-23T01:01:16;98457.25;;;7.51;100.00
51849;BME280;38952;51.090;-1.832;2023-03-23T01:03:44;98466.72;;;7.54;100.00
51849;BME280;38952;51.090;-1.832;2023-03-23T01:06:14;98500.97;;;7.55;100.00
51849;BME280;38952;51.090;-1.832;2023-03-23T01:08:42;98464.06;;;7.48;100.00
51849;BME280;38952;51.090;-1.832;2023-03-23T01:11:15;98463.72;;;7.55;100.00
51849;BME280;38952;51.090;-1.832;2023-03-23T01:13:45;98487.22;;;7.46;100.00
51849;BME280;38952;51.090;-1.832;2023-03-23T01:16:11;98459.28;;;7.40;100.00
51849;BME280;38952;51.090;-1.832;2023-03-23T01:18:39;98451.72;;;7.37;100.00
51849;BME280;38952;51.090;-1.832;2023-03-23T01:21:19;98480.97;;;7.45;100.00
51849;BME280;38952;51.090;-1.832;2023-03-23T01:23:46;98475.31;;;7.42;100.00
51849;BME280;38952;51.090;-1.832;2023-03-23T01:26:21;98489.56;;;7.33;100.00
51849;BME280;38952;51.090;-1.832;2023-03-23T01:28:47;98471.91;;;7.31;100.00
51849;BME280;38952;51.090;-1.832;2023-03-23T01:31:22;98481.56;;;7.42;100.00
51849;BME280;38952;51.090;-1.832;2023-03-23T01:33:51;98478.91;;;7.37;100.00
51849;BME280;38952;51.090;-1.832;2023-03-23T01:36:20;98468.75;;;7.24;100.00
51849;BME280;38952;51.090;-1.832;2023-03-23T01:38:47;98471.53;;;7.19;100.00
51849;BME280;38952;51.090;-1.832;2023-03-23T01:41:14;98484.47;;;7.27;100.00
51849;BME280;38952;51.090;-1.832;2023-03-23T01:46:42;98497.63;;;7.20;100.00
51849;BME280;38952;51.090;-1.832;2023-03-23T01:49:12;98498.28;;;7.11;100.00
51849;BME280;38952;51.090;-1.832;2023-03-23T01:52:06;98498.28;;;7.11;100.00
51849;BME280;38952;51.090;-1.832;2023-03-23T01:54:34;98490.16;;;7.06;100.00
51849;BME280;38952;51.090;-1.832;2023-03-23T01:57:17;98506.13;;;7.13;100.00
51849;BME280;38952;51.090;-1.832;2023-03-23T01:59:47;98491.22;;;7.10;100.00
51849;BME280;38952;51.090;-1.832;2023-03-23T02:02:15;98486.34;;;7.07;100.00
51849;BME280;38952;51.090;-1.832;2023-03-23T02:04:41;98496.13;;;7.08;100.00
51849;BME280;38952;51.090;-1.832;2023-03-23T02:07:08;98495.31;;;7.08;100.00
51849;BME280;38952;51.090;-1.832;2023-03-23T02:09:36;98483.69;;;7.02;100.00
51849;BME280;38952;51.090;-1.832;2023-03-23T02:12:02;98486.34;;;7.07;100.00
51849;BME280;38952;51.090;-1.832;2023-03-23T02:14:28;98491.34;;;7.00;100.00
51849;BME280;38952;51.090;-1.832;2023-03-23T02:17:05;98490.25;;;7.01;100.00
51849;BME280;38952;51.090;-1.832;2023-03-23T02:33:51;98497.22;;;7.07;100.00
51849;BME280;38952;51.090;-1.832;2023-03-23T02:36:30;98505.09;;;7.09;100.00
51849;BME280;38952;51.090;-1.832;2023-03-23T02:39:09;98495.59;;;7.06;100.00
51849;BME280;38952;51.090;-1.832;2023-03-23T02:41:44;98511.91;;;7.06;100.00
51849;BME280;38952;51.090;-1.832;2023-03-23T02:44:13;98496.47;;;7.02;100.00
51849;BME280;38952;51.090;-1.832;2023-03-23T02:46:41;98501.41;;;6.99;100.00
51849;BME280;38952;51.090;-1.832;2023-03-23T02:49:09;98492.66;;;7.03;100.00
51849;BME280;38952;51.090;-1.832;2023-03-23T02:51:36;98489.19;;;6.97;100.00
51849;BME280;38952;51.090;-1.832;2023-03-23T02:54:04;98498.50;;;6.91;100.00
51849;BME280;38952;51.090;-1.832;2023-03-23T02:56:31;98491.19;;;6.86;100.00
51849;BME280;38952;51.090;-1.832;2023-03-23T02:58:58;98499.53;;;6.95;100.00
51849;BME280;38952;51.090;-1.832;2023-03-23T03:04:05;98524.28;;;6.93;100.00
51849;BME280;38952;51.090;-1.832;2023-03-23T03:12:14;98524.28;;;6.93;100.00
51849;BME280;38952;51.090;-1.832;2023-03-23T03:20:35;98518.25;;;6.96;99.19
51849;BME280;38952;51.090;-1.832;2023-03-23T03:23:03;98523.69;;;6.96;99.06
51849;BME280;38952;51.090;-1.832;2023-03-23T03:25:30;98524.06;;;6.90;99.51
51849;BME280;38952;51.090;-1.832;2023-03-23T03:27:56;98524.06;;;6.90;99.36
51849;BME280;38952;51.090;-1.832;2023-03-23T03:30:26;98508.34;;;6.87;99.97
51849;BME280;38952;51.090;-1.832;2023-03-23T03:32:53;98521.84;;;6.92;100.00
51849;BME280;38952;51.090;-1.832;2023-03-23T03:35:23;98530.53;;;6.94;100.00
51849;BME280;38952;51.090;-1.832;2023-03-23T03:37:49;98522.09;;;6.95;100.00
51849;BME280;38952;51.090;-1.832;2023-03-23T03:40:18;98510.75;;;6.88;100.00
51849;BME280;38952;51.090;-1.832;2023-03-23T03:42:45;98527.28;;;6.92;100.00
51849;BME280;38952;51.090;-1.832;2023-03-23T03:45:13;98517.81;;;6.89;100.00
51849;BME280;38952;51.090;-1.832;2023-03-23T03:47:39;98520.00;;;6.87;100.00
51849;BME280;38952;51.090;-1.832;2023-03-23T03:50:05;98521.38;;;6.85;100.00
51849;BME280;38952;51.090;-1.832;2023-03-23T03:52:32;98528.69;;;6.89;100.00
51849;BME280;38952;51.090;-1.832;2023-03-23T03:54:57;98529.50;;;6.90;100.00
51849;BME280;38952;51.090;-1.832;2023-03-23T03:57:23;98527.28;;;6.92;100.00
51849;BME280;38952;51.090;-1.832;2023-03-23T03:59:49;98539.56;;;6.89;100.00
51849;BME280;38952;51.090;-1.832;2023-03-23T04:02:16;98533.88;;;6.86;100.00
51849;BME280;38952;51.090;-1.832;2023-03-23T04:04:46;98525.53;;;6.77;100.00
51849;BME280;38952;51.090;-1.832;2023-03-23T04:07:12;98552.97;;;6.80;100.00
51849;BME280;38952;51.090;-1.832;2023-03-23T04:09:39;98551.34;;;6.79;100.00
51849;BME280;38952;51.090;-1.832;2023-03-23T04:12:05;98545.59;;;6.81;100.00
51849;BME280;38952;51.090;-1.832;2023-03-23T04:14:30;98539.63;;;6.79;100.00
51849;BME280;38952;51.090;-1.832;2023-03-23T04:16:56;98553.22;;;6.79;100.00
51849;BME280;38952;51.090;-1.832;2023-03-23T04:19:23;98553.97;;;6.85;100.00
51849;BME280;38952;51.090;-1.832;2023-03-23T04:21:48;98551.22;;;6.90;100.00
51849;BME280;38952;51.090;-1.832;2023-03-23T04:24:15;98559.88;;;6.92;100.00
51849;BME280;38952;51.090;-1.832;2023-03-23T04:26:41;98562.03;;;6.95;100.00
51849;BME280;38952;51.090;-1.832;2023-03-23T04:29:07;98552.50;;;6.97;100.00
51849;BME280;38952;51.090;-1.832;2023-03-23T04:31:33;98544.22;;;7.08;100.00
51849;BME280;38952;51.090;-1.832;2023-03-23T04:34:00;98568.00;;;7.21;100.00
51849;BME280;38952;51.090;-1.832;2023-03-23T04:36:27;98545.75;;;7.19;100.00
51849;BME280;38952;51.090;-1.832;2023-03-23T04:38:54;98539.81;;;7.17;100.00
51849;BME280;38952;51.090;-1.832;2023-03-23T04:41:21;98539.56;;;7.13;100.00
51849;BME280;38952;51.090;-1.832;2023-03-23T04:43:47;98534.69;;;7.10;100.00
51849;BME280;38952;51.090;-1.832;2023-03-23T04:46:18;98536.91;;;7.08;100.00
51849;BME280;38952;51.090;-1.832;2023-03-23T04:48:44;98541.75;;;7.11;100.00
51849;BME280;38952;51.090;-1.832;2023-03-23T04:51:10;98548.25;;;7.15;100.00
51849;BME280;38952;51.090;-1.832;2023-03-23T04:53:37;98546.31;;;7.16;100.00
51849;BME280;38952;51.090;-1.832;2023-03-23T04:56:03;98541.66;;;7.22;100.00
51849;BME280;38952;51.090;-1.832;2023-03-23T04:58:29;98547.53;;;7.29;100.00
51849;BME280;38952;51.090;-1.832;2023-03-23T05:00:59;98538.97;;;7.41;100.00
51849;BME280;38952;51.090;-1.832;2023-03-23T05:03:25;98530.97;;;7.49;100.00
51849;BME280;38952;51.090;-1.832;2023-03-23T05:05:52;98549.13;;;7.54;100.00
51849;BME280;38952;51.090;-1.832;2023-03-23T05:08:22;98534.06;;;7.62;100.00
51849;BME280;38952;51.090;-1.832;2023-03-23T05:10:55;98546.88;;;7.61;100.00
51849;BME280;38952;51.090;-1.832;2023-03-23T05:13:21;98547.75;;;7.57;100.00
51849;BME280;38952;51.090;-1.832;2023-03-23T05:15:47;98539.94;;;7.50;100.00
51849;BME280;38952;51.090;-1.832;2023-03-23T05:18:13;98555.94;;;7.51;100.00
51849;BME280;38952;51.090;-1.832;2023-03-23T05:20:39;98540.81;;;7.45;100.00
51849;BME280;38952;51.090;-1.832;2023-03-23T05:23:07;98537.22;;;7.50;100.00
51849;BME280;38952;51.090;-1.832;2023-03-23T05:25:33;98531.34;;;7.62;100.00
51849;BME280;38952;51.090;-1.832;2023-03-23T05:28:08;98543.41;;;7.75;100.00
51849;BME280;38952;51.090;-1.832;2023-03-23T05:30:42;98527.88;;;7.75;100.00
51849;BME280;38952;51.090;-1.832;2023-03-23T05:33:09;98536.78;;;7.81;100.00
51849;BME280;38952;51.090;-1.832;2023-03-23T05:35:35;98520.84;;;7.74;100.00
51849;BME280;38952;51.090;-1.832;2023-03-23T05:38:00;98541.50;;;7.75;100.00
51849;BME280;38952;51.090;-1.832;2023-03-23T05:40:27;98531.16;;;7.77;100.00
51849;BME280;38952;51.090;-1.832;2023-03-23T05:42:53;98526.28;;;7.74;100.00
51849;BME280;38952;51.090;-1.832;2023-03-23T05:45:21;98527.09;;;7.75;100.00
51849;BME280;38952;51.090;-1.832;2023-03-23T05:47:48;98519.44;;;7.77;100.00
51849;BME280;38952;51.090;-1.832;2023-03-23T05:50:13;98534.81;;;7.86;100.00
51849;BME280;38952;51.090;-1.832;2023-03-23T05:52:39;98523.94;;;7.86;100.00
51849;BME280;38952;51.090;-1.832;2023-03-23T05:55:06;98527.75;;;7.85;100.00
51849;BME280;38952;51.090;-1.832;2023-03-23T05:57:33;98530.47;;;7.85;100.00
51849;BME280;38952;51.090;-1.832;2023-03-23T05:59:58;98547.91;;;7.84;100.00
51849;BME280;38952;51.090;-1.832;2023-03-23T06:02:25;98533.19;;;7.85;100.00
51849;BME280;38952;51.090;-1.832;2023-03-23T06:04:53;98527.75;;;7.85;100.00
51849;BME280;38952;51.090;-1.832;2023-03-23T06:07:23;98523.34;;;7.90;100.00
51849;BME280;38952;51.090;-1.832;2023-03-23T06:09:52;98527.25;;;7.83;100.00
51849;BME280;38952;51.090;-1.832;2023-03-23T06:12:17;98529.47;;;7.81;100.00
51849;BME280;38952;51.090;-1.832;2023-03-23T06:14:47;98527.31;;;7.78;100.00
51849;BME280;38952;51.090;-1.832;2023-03-23T06:17:16;98525.91;;;7.81;100.00
51849;BME280;38952;51.090;-1.832;2023-03-23T06:19:42;98526.28;;;7.74;100.00
51849;BME280;38952;51.090;-1.832;2023-03-23T06:22:09;98523.72;;;7.64;100.00
51849;BME280;38952;51.090;-1.832;2023-03-23T06:24:34;98521.59;;;7.61;100.00
51849;BME280;38952;51.090;-1.832;2023-03-23T06:27:00;98520.84;;;7.55;100.00
51849;BME280;38952;51.090;-1.832;2023-03-23T06:29:26;98514.88;;;7.53;100.00
51849;BME280;38952;51.090;-1.832;2023-03-23T06:31:58;98515.69;;;7.54;100.00
51849;BME280;38952;51.090;-1.832;2023-03-23T06:34:24;98540.69;;;7.56;100.00
51849;BME280;38952;51.090;-1.832;2023-03-23T06:36:50;98544.72;;;7.58;100.00
51849;BME280;38952;51.090;-1.832;2023-03-23T06:39:15;98544.50;;;7.55;100.00
51849;BME280;38952;51.090;-1.832;2023-03-23T06:41:40;98533.59;;;7.55;100.00
51849;BME280;38952;51.090;-1.832;2023-03-23T06:44:06;98534.06;;;7.62;100.00
51849;BME280;38952;51.090;-1.832;2023-03-23T06:46:32;98547.66;;;7.62;100.00
51849;BME280;38952;51.090;-1.832;2023-03-23T06:48:57;98527.22;;;7.64;100.00
51849;BME280;38952;51.090;-1.832;2023-03-23T06:51:25;98529.34;;;7.67;100.00
51849;BME280;38952;51.090;-1.832;2023-03-23T06:53:51;98541.56;;;7.70;100.00
51849;BME280;38952;51.090;-1.832;2023-03-23T06:56:16;98548.34;;;7.73;100.00
51849;BME280;38952;51.090;-1.832;2023-03-23T06:58:42;98554.94;;;7.85;100.00
51849;BME280;38952;51.090;-1.832;2023-03-23T07:01:08;98555.94;;;7.95;100.00
51849;BME280;38952;51.090;-1.832;2023-03-23T07:03:34;98557.91;;;8.27;100.00
51849;BME280;38952;51.090;-1.832;2023-03-23T07:06:00;98545.44;;;8.40;100.00
51849;BME280;38952;51.090;-1.832;2023-03-23T07:08:27;98560.69;;;8.41;100.00
51849;BME280;38952;51.090;-1.832;2023-03-23T07:10:54;98534.53;;;8.40;100.00
51849;BME280;38952;51.090;-1.832;2023-03-23T07:13:20;98547.28;;;8.45;100.00
51849;BME280;38952;51.090;-1.832;2023-03-23T07:15:46;98552.38;;;8.51;100.00
51849;BME280;38952;51.090;-1.832;2023-03-23T07:18:12;98566.78;;;8.52;100.00
51849;BME280;38952;51.090;-1.832;2023-03-23T07:20:37;98584.97;;;8.56;100.00
51849;BME280;38952;51.090;-1.832;2023-03-23T07:23:05;98555.22;;;8.60;100.00
51849;BME280;38952;51.090;-1.832;2023-03-23T07:25:34;98539.19;;;8.59;100.00
51849;BME280;38952;51.090;-1.832;2023-03-23T07:28:06;98557.13;;;8.60;100.00
51849;BME280;38952;51.090;-1.832;2023-03-23T07:30:34;98557.16;;;8.73;100.00
51849;BME280;38952;51.090;-1.832;2023-03-23T07:33:04;98563.66;;;8.91;100.00
51849;BME280;38952;51.090;-1.832;2023-03-23T07:35:30;98577.03;;;9.07;100.00
51849;BME280;38952;51.090;-1.832;2023-03-23T07:37:56;98580.53;;;9.07;100.00
51849;BME280;38952;51.090;-1.832;2023-03-23T07:40:25;98564.88;;;8.99;100.00
51849;BME280;38952;51.090;-1.832;2023-03-23T07:42:53;98564.69;;;8.96;100.00
51849;BME280;38952;51.090;-1.832;2023-03-23T07:45:20;98563.66;;;8.91;100.00
51849;BME280;38952;51.090;-1.832;2023-03-23T07:47:49;98565.06;;;8.89;100.00
51849;BME280;38952;51.090;-1.832;2023-03-23T07:50:14;98564.88;;;8.99;100.00
51849;BME280;38952;51.090;-1.832;2023-03-23T07:52:40;98570.25;;;9.18;100.00
51849;BME280;38952;51.090;-1.832;2023-03-23T07:55:09;98577.84;;;9.35;100.00
51849;BME280;38952;51.090;-1.832;2023-03-23T07:57:36;98566.72;;;9.46;100.00
51849;BME280;38952;51.090;-1.832;2023-03-23T08:00:03;98560.88;;;9.52;99.29
51849;BME280;38952;51.090;-1.832;2023-03-23T08:02:36;98570.13;;;9.79;98.53
51849;BME280;38952;51.090;-1.832;2023-03-23T08:05:01;98591.66;;;10.17;97.39
51849;BME280;38952;51.090;-1.832;2023-03-23T08:07:27;98559.66;;;10.31;92.62
51849;BME280;38952;51.090;-1.832;2023-03-23T08:09:52;98581.75;;;10.21;93.48
51849;BME280;38952;51.090;-1.832;2023-03-23T08:12:20;98571.28;;;10.01;93.28
51849;BME280;38952;51.090;-1.832;2023-03-23T08:14:46;98576.13;;;10.04;92.90
51849;BME280;38952;51.090;-1.832;2023-03-23T08:17:13;98603.69;;;10.30;92.43
51849;BME280;38952;51.090;-1.832;2023-03-23T08:19:51;98580.94;;;10.57;89.52
51849;BME280;38952;51.090;-1.832;2023-03-23T08:22:25;98558.53;;;10.33;89.73
51849;BME280;38952;51.090;-1.832;2023-03-23T08:25:30;98602.41;;;10.13;92.68
51849;BME280;38952;51.090;-1.832;2023-03-23T08:28:22;98572.94;;;9.88;97.35
51849;BME280;38952;51.090;-1.832;2023-03-23T08:31:13;98585.69;;;9.65;99.41
51849;BME280;38952;51.090;-1.832;2023-03-23T08:34:05;98574.91;;;9.32;100.00
51849;BME280;38952;51.090;-1.832;2023-03-23T08:36:47;98604.41;;;9.30;100.00
51849;BME280;38952;51.090;-1.832;2023-03-23T08:42:52;98579.44;;;9.22;100.00
51849;BME280;38952;51.090;-1.832;2023-03-23T08:45:30;98566.13;;;9.35;100.00
51849;BME280;38952;51.090;-1.832;2023-03-23T08:51:11;98553.69;;;9.42;100.00
51849;BME280;38952;51.090;-1.832;2023-03-23T08:54:31;98585.19;;;9.49;100.00
51849;BME280;38952;51.090;-1.832;2023-03-23T08:56:50;98547.63;;;9.32;100.00
51849;BME280;38952;51.090;-1.832;2023-03-23T08:59:54;98569.09;;;9.75;100.00
51849;BME280;38952;51.090;-1.832;2023-03-23T09:02:41;98575.38;;;11.92;100.00
51849;BME280;38952;51.090;-1.832;2023-03-23T09:05:14;98574.59;;;13.26;93.93
51849;BME280;38952;51.090;-1.832;2023-03-23T09:07:50;98557.16;;;12.66;89.87
51849;BME280;38952;51.090;-1.832;2023-03-23T09:10:32;98549.88;;;14.70;84.85
51849;BME280;38952;51.090;-1.832;2023-03-23T09:16:15;98589.22;;;14.28;75.30
51849;BME280;38952;51.090;-1.832;2023-03-23T09:18:44;98588.81;;;12.63;82.98
51849;BME280;38952;51.090;-1.832;2023-03-23T09:21:26;98564.03;;;11.58;90.48
51849;BME280;38952;51.090;-1.832;2023-03-23T09:31:28;98561.84;;;9.84;100.00
51849;BME280;38952;51.090;-1.832;2023-03-23T09:34:17;98585.03;;;9.95;100.00
51849;BME280;38952;51.090;-1.832;2023-03-23T09:37:03;98540.63;;;10.04;100.00
51849;BME280;38952;51.090;-1.832;2023-03-23T09:39:41;98551.22;;;10.19;100.00
51849;BME280;38952;51.090;-1.832;2023-03-23T09:46:01;98556.16;;;9.94;100.00
51849;BME280;38952;51.090;-1.832;2023-03-23T10:06:03;98555.56;;;10.88;100.00
51849;BME280;38952;51.090;-1.832;2023-03-23T10:08:35;98555.59;;;12.03;99.04
51849;BME280;38952;51.090;-1.832;2023-03-23T10:52:13;98611.97;;;11.47;100.00
51849;BME280;38952;51.090;-1.832;2023-03-23T10:55:17;98606.53;;;12.22;97.22
51849;BME280;38952;51.090;-1.832;2023-03-23T10:57:47;98616.47;;;11.92;96.29
51849;BME280;38952;51.090;-1.832;2023-03-23T11:00:42;98603.66;;;11.21;97.50
51849;BME280;38952;51.090;-1.832;2023-03-23T11:03:46;98614.53;;;11.43;100.00
51849;BME280;38952;51.090;-1.832;2023-03-23T11:06:32;98648.53;;;11.51;99.92
51849;BME280;38952;51.090;-1.832;2023-03-23T11:09:13;98599.03;;;11.79;95.09
51849;BME280;38952;51.090;-1.832;2023-03-23T11:11:59;98609.13;;;12.62;94.21
51849;BME280;38952;51.090;-1.832;2023-03-23T11:14:37;98617.06;;;13.20;89.08
51849;BME280;38952;51.090;-1.832;2023-03-23T11:17:25;98614.72;;;13.57;86.17
51849;BME280;38952;51.090;-1.832;2023-03-23T11:20:36;98616.34;;;15.76;78.51
51849;BME280;38952;51.090;-1.832;2023-03-23T11:23:37;98631.38;;;18.80;65.44
51849;BME280;38952;51.090;-1.832;2023-03-23T11:26:44;98616.72;;;17.09;64.31
51849;BME280;38952;51.090;-1.832;2023-03-23T11:29:24;98607.66;;;20.79;60.82
51849;BME280;38952;51.090;-1.832;2023-03-23T11:32:02;98613.06;;;21.39;53.59
51849;BME280;38952;51.090;-1.832;2023-03-23T11:34:47;98584.59;;;21.16;54.38
51849;BME280;38952;51.090;-1.832;2023-03-23T11:37:40;98601.75;;;20.23;54.48
51849;BME280;38952;51.090;-1.832;2023-03-23T12:16:28;98593.84;;;19.95;51.34
51849;BME280;38952;51.090;-1.832;2023-03-23T12:31:59;98581.94;;;16.64;56.38
51849;BME280;38952;51.090;-1.832;2023-03-23T12:43:48;98575.31;;;14.25;65.62
51849;BME280;38952;51.090;-1.832;2023-03-23T12:54:33;98575.44;;;12.53;78.64
51849;BME280;38952;51.090;-1.832;2023-03-23T13:04:46;98542.56;;;12.00;82.50
51849;BME280;38952;51.090;-1.832;2023-03-23T13:07:19;98564.56;;;11.78;84.49
51849;BME280;38952;51.090;-1.832;2023-03-23T13:09:59;98562.50;;;11.34;91.05
51849;BME280;38952;51.090;-1.832;2023-03-23T13:12:29;98544.69;;;11.06;97.46
51849;BME280;38952;51.090;-1.832;2023-03-23T13:17:56;98545.59;;;11.32;99.16
51849;BME280;38952;51.090;-1.832;2023-03-23T13:23:29;98539.56;;;11.62;93.77
51849;BME280;38952;51.090;-1.832;2023-03-23T13:26:02;98529.72;;;11.69;94.14
51849;BME280;38952;51.090;-1.832;2023-03-23T13:28:47;98524.56;;;11.59;92.35
51849;BME280;38952;51.090;-1.832;2023-03-23T13:31:24;98521.19;;;11.53;92.34
51849;BME280;38952;51.090;-1.832;2023-03-23T13:33:58;98512.63;;;11.38;90.33
51849;BME280;38952;51.090;-1.832;2023-03-23T13:36:33;98544.47;;;11.33;91.44
51849;BME280;38952;51.090;-1.832;2023-03-23T13:38:59;98512.66;;;11.06;95.51
51849;BME280;38952;51.090;-1.832;2023-03-23T13:41:26;98503.19;;;10.72;99.45
51849;BME280;38952;51.090;-1.832;2023-03-23T13:44:05;98517.44;;;10.60;100.00
51849;BME280;38952;51.090;-1.832;2023-03-23T13:46:39;98525.84;;;10.41;100.00
51849;BME280;38952;51.090;-1.832;2023-03-23T13:49:21;98499.44;;;10.14;100.00
51849;BME280;38952;51.090;-1.832;2023-03-23T13:52:48;98519.66;;;10.13;100.00
51849;BME280;38952;51.090;-1.832;2023-03-23T13:58:29;98494.78;;;9.78;100.00
51849;BME280;38952;51.090;-1.832;2023-03-23T14:01:19;98516.94;;;9.76;100.00
51849;BME280;38952;51.090;-1.832;2023-03-23T14:03:53;98468.47;;;9.59;100.00
51849;BME280;38952;51.090;-1.832;2023-03-23T14:06:25;98485.63;;;9.74;100.00
51849;BME280;38952;51.090;-1.832;2023-03-23T14:09:11;98466.63;;;9.69;100.00
51849;BME280;38952;51.090;-1.832;2023-03-23T14:14:23;98461.25;;;9.41;100.00
51849;BME280;38952;51.090;-1.832;2023-03-23T14:17:24;98467.03;;;9.62;100.00
51849;BME280;38952;51.090;-1.832;2023-03-23T14:19:55;98471.69;;;9.61;100.00
51849;BME280;38952;51.090;-1.832;2023-03-23T14:22:33;98480.34;;;9.77;100.00
51849;BME280;38952;51.090;-1.832;2023-03-23T14:25:17;98470.47;;;9.68;100.00
51849;BME280;38952;51.090;-1.832;2023-03-23T14:27:53;98440.19;;;9.55;100.00
51849;BME280;38952;51.090;-1.832;2023-03-23T14:30:33;98441.44;;;9.49;100.00
51849;BME280;38952;51.090;-1.832;2023-03-23T14:33:06;98460.22;;;9.51;100.00
51849;BME280;38952;51.090;-1.832;2023-03-23T14:35:37;98455.47;;;9.56;100.00
51849;BME280;38952;51.090;-1.832;2023-03-23T14:38:26;98475.53;;;9.60;100.00
51849;BME280;38952;51.090;-1.832;2023-03-23T14:44:40;98460.63;;;9.44;100.00
51849;BME280;38952;51.090;-1.832;2023-03-23T14:47:10;98432.38;;;9.26;100.00
51849;BME280;38952;51.090;-1.832;2023-03-23T14:49:46;98433.47;;;9.25;100.00
51849;BME280;38952;51.090;-1.832;2023-03-23T14:52:14;98424.59;;;9.19;100.00
51849;BME280;38952;51.090;-1.832;2023-03-23T14:54:44;98410.97;;;9.19;100.00
51849;BME280;38952;51.090;-1.832;2023-03-23T14:57:26;98421.78;;;9.24;100.00
51849;BME280;38952;51.090;-1.832;2023-03-23T14:59:55;98403.31;;;9.21;100.00
51849;BME280;38952;51.090;-1.832;2023-03-23T15:04:56;98410.75;;;9.30;100.00
51849;BME280;38952;51.090;-1.832;2023-03-23T15:07:30;98407.13;;;9.20;100.00
51849;BME280;38952;51.090;-1.832;2023-03-23T15:09:57;98390.16;;;9.23;100.00
51849;BME280;38952;51.090;-1.832;2023-03-23T15:12:28;98386.72;;;9.18;100.00
51849;BME280;38952;51.090;-1.832;2023-03-23T15:14:58;98397.84;;;9.21;100.00
51849;BME280;38952;51.090;-1.832;2023-03-23T15:17:36;98390.78;;;9.20;100.00
51849;BME280;38952;51.090;-1.832;2023-03-23T15:20:28;98380.88;;;9.24;100.00
51849;BME280;38952;51.090;-1.832;2023-03-23T15:22:54;98370.56;;;9.21;100.00
51849;BME280;38952;51.090;-1.832;2023-03-23T15:25:21;98393.88;;;9.28;100.00
51849;BME280;38952;51.090;-1.832;2023-03-23T15:27:52;98367.53;;;9.23;100.00
51849;BME280;38952;51.090;-1.832;2023-03-23T15:32:49;98375.91;;;9.26;100.00
51849;BME280;38952;51.090;-1.832;2023-03-23T15:35:18;98366.31;;;9.29;100.00
51849;BME280;38952;51.090;-1.832;2023-03-23T15:38:00;98336.41;;;9.24;100.00
51849;BME280;38952;51.090;-1.832;2023-03-23T15:40:36;98333.00;;;9.18;100.00
51849;BME280;38952;51.090;-1.832;2023-03-23T15:43:25;98339.66;;;9.26;100.00
51849;BME280;38952;51.090;-1.832;2023-03-23T15:51:27;98314.78;;;9.28;100.00
51849;BME280;38952;51.090;-1.832;2023-03-23T15:53:53;98319.00;;;9.34;100.00
51849;BME280;38952;51.090;-1.832;2023-03-23T15:56:20;98293.97;;;9.32;100.00
51849;BME280;38952;51.090;-1.832;2023-03-23T15:58:55;98295.47;;;9.38;100.00
51849;BME280;38952;51.090;-1.832;2023-03-23T16:01:26;98293.97;;;9.32;100.00
51849;BME280;38952;51.090;-1.832;2023-03-23T16:03:57;98286.22;;;9.25;100.00
51849;BME280;38952;51.090;-1.832;2023-03-23T16:06:29;98286.75;;;9.36;100.00
51849;BME280;38952;51.090;-1.832;2023-03-23T16:09:00;98294.69;;;9.46;100.00
51849;BME280;38952;51.090;-1.832;2023-03-23T16:11:29;98311.44;;;9.31;100.00
51849;BME280;38952;51.090;-1.832;2023-03-23T16:13:55;98259.13;;;9.06;100.00
51849;BME280;38952;51.090;-1.832;2023-03-23T16:16:41;98279.22;;;9.10;100.00
51849;BME280;38952;51.090;-1.832;2023-03-23T16:19:13;98265.56;;;9.10;100.00
51849;BME280;38952;51.090;-1.832;2023-03-23T16:21:39;98240.53;;;9.08;100.00
51849;BME280;38952;51.090;-1.832;2023-03-23T16:24:05;98246.72;;;9.22;100.00
51849;BME280;38952;51.090;-1.832;2023-03-23T16:26:34;98232.78;;;9.24;100.00
51849;BME280;38952;51.090;-1.832;2023-03-23T16:29:29;98242.25;;;9.26;100.00
51849;BME280;38952;51.090;-1.832;2023-03-23T16:31:54;98217.50;;;9.14;100.00
51849;BME280;38952;51.090;-1.832;2023-03-23T16:34:20;98183.03;;;8.96;100.00
51849;BME280;38952;51.090;-1.832;2023-03-23T16:36:49;98233.03;;;9.14;100.00
51849;BME280;38952;51.090;-1.832;2023-03-23T16:39:19;98209.44;;;9.09;100.00
51849;BME280;38952;51.090;-1.832;2023-03-23T16:41:47;98238.31;;;9.10;100.00
51849;BME280;38952;51.090;-1.832;2023-03-23T16:44:13;98203.84;;;8.91;100.00
51849;BME280;38952;51.090;-1.832;2023-03-23T16:46:45;98192.16;;;8.91;100.00